sensor_id;sensor_type;location;lat;lon;timestamp;temperature;humidity
10443;DHT22;5269;51.146;16.986;2022-09-28T00:01:31;8.90;99.90
10443;DHT22;5269;51.146;16.986;2022-09-28T00:03:59;8.90;99.90
10443;DHT22;5269;51.146;16.986;2022-09-28T00:06:28;8.90;99.90
10443;DHT22;5269;51.146;16.986;2022-09-28T00:08:55;9.00;99.90
10443;DHT22;5269;51.146;16.986;2022-09-28T00:11:23;8.90;99.90
10443;DHT22;5269;51.146;16.986;2022-09-28T00:13:54;8.90;99.90
10443;DHT22;5269;51.146;16.986;2022-09-28T00:16:24;8.90;99.90
10443;DHT22;5269;51.146;16.986;2022-09-28T00:18:52;8.90;99.90
10443;DHT22;5269;51.146;16.986;2022-09-28T00:21:23;8.90;99.90
10443;DHT22;5269;51.146;16.986;2022-09-28T00:23:54;8.90;99.90
10443;DHT22;5269;51.146;16.986;2022-09-28T00:26:43;8.90;99.90
10443;DHT22;5269;51.146;16.986;2022-09-28T00:29:17;8.80;99.90
10443;DHT22;5269;51.146;16.986;2022-09-28T00:31:45;8.80;99.90
10443;DHT22;5269;51.146;16.986;2022-09-28T00:34:12;8.80;99.90
10443;DHT22;5269;51.146;16.986;2022-09-28T00:36:42;8.70;99.90
10443;DHT22;5269;51.146;16.986;2022-09-28T00:39:10;8.70;99.90
10443;DHT22;5269;51.146;16.986;2022-09-28T00:41:38;8.70;99.90
10443;DHT22;5269;51.146;16.986;2022-09-28T00:44:30;8.70;99.90
10443;DHT22;5269;51.146;16.986;2022-09-28T00:47:01;8.60;99.90
10443;DHT22;5269;51.146;16.986;2022-09-28T00:49:32;8.50;99.90
10443;DHT22;5269;51.146;16.986;2022-09-28T00:52:02;8.50;99.90
10443;DHT22;5269;51.146;16.986;2022-09-28T00:54:31;8.40;99.90
10443;DHT22;5269;51.146;16.986;2022-09-28T00:57:00;8.50;99.90
10443;DHT22;5269;51.146;16.986;2022-09-28T00:59:27;8.50;99.90
10443;DHT22;5269;51.146;16.986;2022-09-28T01:01:54;8.50;99.90
10443;DHT22;5269;51.146;16.986;2022-09-28T01:04:21;8.40;99.90
10443;DHT22;5269;51.146;16.986;2022-09-28T01:06:50;8.40;99.90
10443;DHT22;5269;51.146;16.986;2022-09-28T01:09:19;8.50;99.90
10443;DHT22;5269;51.146;16.986;2022-09-28T01:11:47;8.50;99.90
10443;DHT22;5269;51.146;16.986;2022-09-28T01:14:14;8.40;99.90
10443;DHT22;5269;51.146;16.986;2022-09-28T01:16:48;8.40;99.90
10443;DHT22;5269;51.146;16.986;2022-09-28T01:19:34;8.50;99.90
10443;DHT22;5269;51.146;16.986;2022-09-28T01:22:19;8.50;99.90
10443;DHT22;5269;51.146;16.986;2022-09-28T01:24:56;8.50;99.90
10443;DHT22;5269;51.146;16.986;2022-09-28T01:27:27;8.50;99.90
10443;DHT22;5269;51.146;16.986;2022-09-28T01:29:59;8.40;99.90
10443;DHT22;5269;51.146;16.986;2022-09-28T01:32:35;8.30;99.90
10443;DHT22;5269;51.146;16.986;2022-09-28T01:35:07;8.30;99.90
10443;DHT22;5269;51.146;16.986;2022-09-28T01:37:43;8.20;99.90
10443;DHT22;5269;51.146;16.986;2022-09-28T01:40:11;8.20;99.90
10443;DHT22;5269;51.146;16.986;2022-09-28T01:42:43;8.20;99.90
10443;DHT22;5269;51.146;16.986;2022-09-28T01:45:14;8.20;99.90
10443;DHT22;5269;51.146;16.986;2022-09-28T01:47:43;8.20;99.90
10443;DHT22;5269;51.146;16.986;2022-09-28T01:50:14;8.30;99.90
10443;DHT22;5269;51.146;16.986;2022-09-28T01:52:46;8.20;99.90
10443;DHT22;5269;51.146;16.986;2022-09-28T01:55:22;8.20;99.90
10443;DHT22;5269;51.146;16.986;2022-09-28T01:57:55;8.20;99.90
10443;DHT22;5269;51.146;16.986;2022-09-28T02:00:24;8.10;99.90
10443;DHT22;5269;51.146;16.986;2022-09-28T02:02:55;8.00;99.90
10443;DHT22;5269;51.146;16.986;2022-09-28T02:05:27;7.90;99.90
10443;DHT22;5269;51.146;16.986;2022-09-28T02:07:58;7.90;99.90
10443;DHT22;5269;51.146;16.986;2022-09-28T02:10:31;7.80;99.90
10443;DHT22;5269;51.146;16.986;2022-09-28T02:13:05;7.80;99.90
10443;DHT22;5269;51.146;16.986;2022-09-28T02:15:39;7.80;99.90
10443;DHT22;5269;51.146;16.986;2022-09-28T02:18:06;7.80;99.90
10443;DHT22;5269;51.146;16.986;2022-09-28T02:20:35;7.90;99.90
10443;DHT22;5269;51.146;16.986;2022-09-28T02:23:04;7.90;99.90
10443;DHT22;5269;51.146;16.986;2022-09-28T02:25:38;7.90;99.90
10443;DHT22;5269;51.146;16.986;2022-09-28T02:28:09;7.90;99.90
10443;DHT22;5269;51.146;16.986;2022-09-28T02:30:39;7.90;99.90
10443;DHT22;5269;51.146;16.986;2022-09-28T02:33:10;8.00;99.90
10443;DHT22;5269;51.146;16.986;2022-09-28T02:35:39;8.00;99.90
10443;DHT22;5269;51.146;16.986;2022-09-28T02:38:06;7.90;99.90
10443;DHT22;5269;51.146;16.986;2022-09-28T02:40:34;8.10;99.90
10443;DHT22;5269;51.146;16.986;2022-09-28T02:43:10;8.10;99.90
10443;DHT22;5269;51.146;16.986;2022-09-28T02:45:58;8.00;99.90
10443;DHT22;5269;51.146;16.986;2022-09-28T02:48:44;8.00;99.90
10443;DHT22;5269;51.146;16.986;2022-09-28T02:51:21;7.90;99.90
10443;DHT22;5269;51.146;16.986;2022-09-28T02:54:07;8.00;99.90
10443;DHT22;5269;51.146;16.986;2022-09-28T02:56:50;8.00;99.90
10443;DHT22;5269;51.146;16.986;2022-09-28T02:59:31;8.10;99.90
10443;DHT22;5269;51.146;16.986;2022-09-28T03:02:04;8.20;99.90
10443;DHT22;5269;51.146;16.986;2022-09-28T03:04:37;8.20;99.90
10443;DHT22;5269;51.146;16.986;2022-09-28T03:07:08;8.20;99.90
10443;DHT22;5269;51.146;16.986;2022-09-28T03:09:41;8.30;99.90
10443;DHT22;5269;51.146;16.986;2022-09-28T03:12:12;8.30;99.90
10443;DHT22;5269;51.146;16.986;2022-09-28T03:14:42;8.30;99.90
10443;DHT22;5269;51.146;16.986;2022-09-28T03:17:10;8.20;99.90
10443;DHT22;5269;51.146;16.986;2022-09-28T03:19:37;8.30;99.90
10443;DHT22;5269;51.146;16.986;2022-09-28T03:22:04;8.30;99.90
10443;DHT22;5269;51.146;16.986;2022-09-28T03:24:37;8.40;99.90
10443;DHT22;5269;51.146;16.986;2022-09-28T03:27:11;8.40;99.90
10443;DHT22;5269;51.146;16.986;2022-09-28T03:29:38;8.40;99.90
10443;DHT22;5269;51.146;16.986;2022-09-28T03:32:06;8.30;99.90
10443;DHT22;5269;51.146;16.986;2022-09-28T03:34:34;8.40;99.90
10443;DHT22;5269;51.146;16.986;2022-09-28T03:37:01;8.40;99.90
10443;DHT22;5269;51.146;16.986;2022-09-28T03:39:28;8.40;99.90
10443;DHT22;5269;51.146;16.986;2022-09-28T03:41:55;8.50;99.90
10443;DHT22;5269;51.146;16.986;2022-09-28T03:44:22;8.40;99.90
10443;DHT22;5269;51.146;16.986;2022-09-28T03:46:49;8.40;99.90
10443;DHT22;5269;51.146;16.986;2022-09-28T03:49:17;8.50;99.90
10443;DHT22;5269;51.146;16.986;2022-09-28T03:51:44;8.50;99.90
10443;DHT22;5269;51.146;16.986;2022-09-28T03:54:11;8.50;99.90
10443;DHT22;5269;51.146;16.986;2022-09-28T03:56:39;8.50;99.90
10443;DHT22;5269;51.146;16.986;2022-09-28T03:59:06;8.40;99.90
10443;DHT22;5269;51.146;16.986;2022-09-28T04:01:33;8.50;99.90
10443;DHT22;5269;51.146;16.986;2022-09-28T04:04:00;8.50;99.90
10443;DHT22;5269;51.146;16.986;2022-09-28T04:06:28;8.50;99.90
10443;DHT22;5269;51.146;16.986;2022-09-28T04:08:55;8.60;99.90
10443;DHT22;5269;51.146;16.986;2022-09-28T04:11:22;8.60;99.90
10443;DHT22;5269;51.146;16.986;2022-09-28T04:13:49;8.60;99.90
10443;DHT22;5269;51.146;16.986;2022-09-28T04:16:16;8.70;99.90
10443;DHT22;5269;51.146;16.986;2022-09-28T04:18:43;8.70;99.90
10443;DHT22;5269;51.146;16.986;2022-09-28T04:21:16;8.70;99.90
10443;DHT22;5269;51.146;16.986;2022-09-28T04:23:46;8.70;99.90
10443;DHT22;5269;51.146;16.986;2022-09-28T04:26:14;8.80;99.90
10443;DHT22;5269;51.146;16.986;2022-09-28T04:28:42;8.70;99.90
10443;DHT22;5269;51.146;16.986;2022-09-28T04:31:26;8.70;99.90
10443;DHT22;5269;51.146;16.986;2022-09-28T04:33:55;8.80;99.90
10443;DHT22;5269;51.146;16.986;2022-09-28T04:36:22;8.70;99.90
10443;DHT22;5269;51.146;16.986;2022-09-28T04:38:51;8.70;99.90
10443;DHT22;5269;51.146;16.986;2022-09-28T04:41:17;8.70;99.90
10443;DHT22;5269;51.146;16.986;2022-09-28T04:43:46;8.80;99.90
10443;DHT22;5269;51.146;16.986;2022-09-28T04:46:13;8.70;99.90
10443;DHT22;5269;51.146;16.986;2022-09-28T04:48:40;8.70;99.90
10443;DHT22;5269;51.146;16.986;2022-09-28T04:51:07;8.80;99.90
10443;DHT22;5269;51.146;16.986;2022-09-28T04:53:34;8.80;99.90
10443;DHT22;5269;51.146;16.986;2022-09-28T04:56:04;8.80;99.90
10443;DHT22;5269;51.146;16.986;2022-09-28T04:58:33;8.80;99.90
10443;DHT22;5269;51.146;16.986;2022-09-28T05:01:02;8.80;99.90
10443;DHT22;5269;51.146;16.986;2022-09-28T05:03:29;8.80;99.90
10443;DHT22;5269;51.146;16.986;2022-09-28T05:05:56;8.80;99.90
10443;DHT22;5269;51.146;16.986;2022-09-28T05:08:23;8.80;99.90
10443;DHT22;5269;51.146;16.986;2022-09-28T05:10:56;8.90;99.90
10443;DHT22;5269;51.146;16.986;2022-09-28T05:13:25;8.90;99.90
10443;DHT22;5269;51.146;16.986;2022-09-28T05:15:54;8.90;99.90
10443;DHT22;5269;51.146;16.986;2022-09-28T05:18:21;8.90;99.90
10443;DHT22;5269;51.146;16.986;2022-09-28T05:20:48;9.00;99.90
10443;DHT22;5269;51.146;16.986;2022-09-28T05:23:16;9.00;99.90
10443;DHT22;5269;51.146;16.986;2022-09-28T05:25:43;9.00;99.90
10443;DHT22;5269;51.146;16.986;2022-09-28T05:28:13;9.00;99.90
10443;DHT22;5269;51.146;16.986;2022-09-28T05:30:41;9.10;99.90
10443;DHT22;5269;51.146;16.986;2022-09-28T05:33:08;9.10;99.90
10443;DHT22;5269;51.146;16.986;2022-09-28T05:35:35;9.10;99.90
10443;DHT22;5269;51.146;16.986;2022-09-28T05:38:03;9.00;99.90
10443;DHT22;5269;51.146;16.986;2022-09-28T05:40:30;9.00;99.90
10443;DHT22;5269;51.146;16.986;2022-09-28T05:43:00;9.00;99.90
10443;DHT22;5269;51.146;16.986;2022-09-28T05:45:28;9.10;99.90
10443;DHT22;5269;51.146;16.986;2022-09-28T05:47:56;9.10;99.90
10443;DHT22;5269;51.146;16.986;2022-09-28T05:50:23;9.00;99.90
10443;DHT22;5269;51.146;16.986;2022-09-28T05:52:57;9.00;99.90
10443;DHT22;5269;51.146;16.986;2022-09-28T05:55:24;9.10;99.90
10443;DHT22;5269;51.146;16.986;2022-09-28T05:57:51;9.10;99.90
10443;DHT22;5269;51.146;16.986;2022-09-28T06:00:18;9.20;99.90
10443;DHT22;5269;51.146;16.986;2022-09-28T06:02:55;9.20;99.90
10443;DHT22;5269;51.146;16.986;2022-09-28T06:05:23;9.20;99.90
10443;DHT22;5269;51.146;16.986;2022-09-28T06:07:50;9.20;99.90
10443;DHT22;5269;51.146;16.986;2022-09-28T06:10:17;9.30;99.90
10443;DHT22;5269;51.146;16.986;2022-09-28T06:12:43;9.30;99.90
10443;DHT22;5269;51.146;16.986;2022-09-28T06:15:13;9.30;99.90
10443;DHT22;5269;51.146;16.986;2022-09-28T06:17:40;9.40;99.90
10443;DHT22;5269;51.146;16.986;2022-09-28T06:20:10;9.50;99.90
10443;DHT22;5269;51.146;16.986;2022-09-28T06:22:37;9.50;99.90
10443;DHT22;5269;51.146;16.986;2022-09-28T06:25:05;9.60;99.90
10443;DHT22;5269;51.146;16.986;2022-09-28T06:27:32;9.70;99.90
10443;DHT22;5269;51.146;16.986;2022-09-28T06:30:00;9.70;99.90
10443;DHT22;5269;51.146;16.986;2022-09-28T06:32:27;9.80;99.90
10443;DHT22;5269;51.146;16.986;2022-09-28T06:34:54;9.80;99.90
10443;DHT22;5269;51.146;16.986;2022-09-28T06:37:23;9.90;99.90
10443;DHT22;5269;51.146;16.986;2022-09-28T06:39:52;10.10;99.90
10443;DHT22;5269;51.146;16.986;2022-09-28T06:42:37;10.30;99.90
10443;DHT22;5269;51.146;16.986;2022-09-28T06:45:32;10.40;99.90
10443;DHT22;5269;51.146;16.986;2022-09-28T06:48:00;10.70;99.90
10443;DHT22;5269;51.146;16.986;2022-09-28T06:50:28;10.70;99.90
10443;DHT22;5269;51.146;16.986;2022-09-28T06:52:59;10.70;99.90
10443;DHT22;5269;51.146;16.986;2022-09-28T06:55:27;10.70;99.90
10443;DHT22;5269;51.146;16.986;2022-09-28T06:57:57;10.90;99.90
10443;DHT22;5269;51.146;16.986;2022-09-28T07:00:25;11.20;99.90
10443;DHT22;5269;51.146;16.986;2022-09-28T07:02:56;11.20;99.90
10443;DHT22;5269;51.146;16.986;2022-09-28T07:05:23;11.20;99.90
10443;DHT22;5269;51.146;16.986;2022-09-28T07:07:52;11.40;99.90
10443;DHT22;5269;51.146;16.986;2022-09-28T07:10:23;11.30;99.90
10443;DHT22;5269;51.146;16.986;2022-09-28T07:12:50;11.40;99.90
10443;DHT22;5269;51.146;16.986;2022-09-28T07:15:17;11.20;99.90
10443;DHT22;5269;51.146;16.986;2022-09-28T07:17:46;11.10;38.90
10443;DHT22;5269;51.146;16.986;2022-09-28T07:20:13;11.20;30.00
10443;DHT22;5269;51.146;16.986;2022-09-28T07:22:41;11.10;88.40
10443;DHT22;5269;51.146;16.986;2022-09-28T07:25:09;11.10;99.90
10443;DHT22;5269;51.146;16.986;2022-09-28T07:27:40;11.20;84.80
10443;DHT22;5269;51.146;16.986;2022-09-28T07:30:07;11.30;99.50
10443;DHT22;5269;51.146;16.986;2022-09-28T07:32:34;11.40;99.90
10443;DHT22;5269;51.146;16.986;2022-09-28T07:35:02;11.60;1.00
10443;DHT22;5269;51.146;16.986;2022-09-28T07:37:33;11.60;1.00
10443;DHT22;5269;51.146;16.986;2022-09-28T07:40:01;11.40;1.00
10443;DHT22;5269;51.146;16.986;2022-09-28T07:42:47;11.50;1.00
10443;DHT22;5269;51.146;16.986;2022-09-28T07:45:15;11.40;1.00
10443;DHT22;5269;51.146;16.986;2022-09-28T07:47:42;11.50;1.00
10443;DHT22;5269;51.146;16.986;2022-09-28T07:50:10;11.60;1.00
10443;DHT22;5269;51.146;16.986;2022-09-28T07:52:37;11.70;1.00
10443;DHT22;5269;51.146;16.986;2022-09-28T07:55:05;11.60;1.00
10443;DHT22;5269;51.146;16.986;2022-09-28T07:57:32;11.50;1.00
10443;DHT22;5269;51.146;16.986;2022-09-28T08:00:02;11.70;1.00
10443;DHT22;5269;51.146;16.986;2022-09-28T08:02:30;11.80;1.00
10443;DHT22;5269;51.146;16.986;2022-09-28T08:05:00;11.90;1.00
10443;DHT22;5269;51.146;16.986;2022-09-28T08:07:27;11.80;1.00
10443;DHT22;5269;51.146;16.986;2022-09-28T08:09:53;11.80;1.00
10443;DHT22;5269;51.146;16.986;2022-09-28T08:12:21;11.70;1.00
10443;DHT22;5269;51.146;16.986;2022-09-28T08:14:58;11.90;1.00
10443;DHT22;5269;51.146;16.986;2022-09-28T08:17:26;12.20;1.00
10443;DHT22;5269;51.146;16.986;2022-09-28T08:19:53;12.30;99.90
10443;DHT22;5269;51.146;16.986;2022-09-28T08:22:38;12.20;99.90
10443;DHT22;5269;51.146;16.986;2022-09-28T08:25:06;12.20;99.90
10443;DHT22;5269;51.146;16.986;2022-09-28T08:27:33;12.10;99.90
10443;DHT22;5269;51.146;16.986;2022-09-28T08:30:03;12.00;99.90
10443;DHT22;5269;51.146;16.986;2022-09-28T08:32:31;12.30;1.00
10443;DHT22;5269;51.146;16.986;2022-09-28T08:35:00;12.30;95.50
10443;DHT22;5269;51.146;16.986;2022-09-28T08:37:27;12.30;1.00
10443;DHT22;5269;51.146;16.986;2022-09-28T08:39:54;12.30;1.00
10443;DHT22;5269;51.146;16.986;2022-09-28T08:42:32;12.30;1.00
10443;DHT22;5269;51.146;16.986;2022-09-28T08:45:06;12.30;42.70
10443;DHT22;5269;51.146;16.986;2022-09-28T08:47:40;12.60;99.90
10443;DHT22;5269;51.146;16.986;2022-09-28T08:50:30;12.80;1.00
10443;DHT22;5269;51.146;16.986;2022-09-28T08:53:02;12.80;1.00
10443;DHT22;5269;51.146;16.986;2022-09-28T08:55:33;13.00;1.00
10443;DHT22;5269;51.146;16.986;2022-09-28T08:58:05;12.70;1.00
10443;DHT22;5269;51.146;16.986;2022-09-28T09:00:40;12.80;55.60
10443;DHT22;5269;51.146;16.986;2022-09-28T09:03:13;13.10;1.00
10443;DHT22;5269;51.146;16.986;2022-09-28T09:05:49;13.20;1.00
10443;DHT22;5269;51.146;16.986;2022-09-28T09:08:28;13.40;1.00
10443;DHT22;5269;51.146;16.986;2022-09-28T09:11:08;13.40;99.90
10443;DHT22;5269;51.146;16.986;2022-09-28T09:14:00;13.20;99.90
10443;DHT22;5269;51.146;16.986;2022-09-28T09:16:36;12.80;26.30
10443;DHT22;5269;51.146;16.986;2022-09-28T09:19:13;13.10;88.00
10443;DHT22;5269;51.146;16.986;2022-09-28T09:21:44;13.30;42.60
10443;DHT22;5269;51.146;16.986;2022-09-28T09:24:24;13.30;93.90
10443;DHT22;5269;51.146;16.986;2022-09-28T09:27:02;13.10;1.00
10443;DHT22;5269;51.146;16.986;2022-09-28T09:29:38;13.00;1.00
10443;DHT22;5269;51.146;16.986;2022-09-28T09:32:19;13.00;99.90
10443;DHT22;5269;51.146;16.986;2022-09-28T09:34:59;12.90;99.90
10443;DHT22;5269;51.146;16.986;2022-09-28T09:37:49;13.00;99.90
10443;DHT22;5269;51.146;16.986;2022-09-28T09:40:31;12.90;99.90
10443;DHT22;5269;51.146;16.986;2022-09-28T09:43:26;13.00;99.90
10443;DHT22;5269;51.146;16.986;2022-09-28T09:46:05;13.00;91.70
10443;DHT22;5269;51.146;16.986;2022-09-28T09:48:38;12.90;99.90
10443;DHT22;5269;51.146;16.986;2022-09-28T09:51:16;13.10;99.90
10443;DHT22;5269;51.146;16.986;2022-09-28T09:53:51;13.20;1.00
10443;DHT22;5269;51.146;16.986;2022-09-28T09:56:27;13.20;1.00
10443;DHT22;5269;51.146;16.986;2022-09-28T09:58:59;13.30;1.00
10443;DHT22;5269;51.146;16.986;2022-09-28T10:01:32;13.60;1.00
10443;DHT22;5269;51.146;16.986;2022-09-28T10:04:01;14.10;1.00
10443;DHT22;5269;51.146;16.986;2022-09-28T10:06:34;13.80;1.00
10443;DHT22;5269;51.146;16.986;2022-09-28T10:09:04;13.80;99.90
10443;DHT22;5269;51.146;16.986;2022-09-28T10:11:33;13.80;99.90
10443;DHT22;5269;51.146;16.986;2022-09-28T10:14:02;13.70;99.90
10443;DHT22;5269;51.146;16.986;2022-09-28T10:16:29;14.00;99.90
10443;DHT22;5269;51.146;16.986;2022-09-28T10:18:57;14.10;99.90
10443;DHT22;5269;51.146;16.986;2022-09-28T10:21:25;14.10;99.90
10443;DHT22;5269;51.146;16.986;2022-09-28T10:23:56;14.30;99.90
10443;DHT22;5269;51.146;16.986;2022-09-28T10:26:26;14.10;99.90
10443;DHT22;5269;51.146;16.986;2022-09-28T10:28:57;13.80;99.90
10443;DHT22;5269;51.146;16.986;2022-09-28T10:31:40;13.70;99.90
10443;DHT22;5269;51.146;16.986;2022-09-28T10:34:10;13.80;99.90
10443;DHT22;5269;51.146;16.986;2022-09-28T10:36:49;13.60;99.90
10443;DHT22;5269;51.146;16.986;2022-09-28T10:39:33;13.60;99.90
10443;DHT22;5269;51.146;16.986;2022-09-28T10:42:05;13.60;99.90
10443;DHT22;5269;51.146;16.986;2022-09-28T10:44:34;13.60;99.90
10443;DHT22;5269;51.146;16.986;2022-09-28T10:47:05;13.60;99.90
10443;DHT22;5269;51.146;16.986;2022-09-28T10:49:41;13.50;99.90
10443;DHT22;5269;51.146;16.986;2022-09-28T10:52:37;13.40;99.90
10443;DHT22;5269;51.146;16.986;2022-09-28T10:55:27;13.20;99.90
10443;DHT22;5269;51.146;16.986;2022-09-28T10:57:55;12.70;1.00
10443;DHT22;5269;51.146;16.986;2022-09-28T11:00:34;12.50;1.00
10443;DHT22;5269;51.146;16.986;2022-09-28T11:03:03;12.40;99.90
10443;DHT22;5269;51.146;16.986;2022-09-28T11:05:31;11.70;1.00
10443;DHT22;5269;51.146;16.986;2022-09-28T11:08:01;11.00;99.90
10443;DHT22;5269;51.146;16.986;2022-09-28T11:10:32;10.60;99.90
10443;DHT22;5269;51.146;16.986;2022-09-28T11:13:01;10.40;99.90
10443;DHT22;5269;51.146;16.986;2022-09-28T11:15:30;10.10;1.00
10443;DHT22;5269;51.146;16.986;2022-09-28T11:18:17;10.00;1.00
10443;DHT22;5269;51.146;16.986;2022-09-28T11:20:44;10.00;99.90
10443;DHT22;5269;51.146;16.986;2022-09-28T11:23:18;10.00;99.90
10443;DHT22;5269;51.146;16.986;2022-09-28T11:25:57;10.10;99.90
10443;DHT22;5269;51.146;16.986;2022-09-28T11:28:29;10.40;99.90
10443;DHT22;5269;51.146;16.986;2022-09-28T11:30:57;10.40;99.90
10443;DHT22;5269;51.146;16.986;2022-09-28T11:33:29;10.30;99.90
10443;DHT22;5269;51.146;16.986;2022-09-28T11:36:08;10.20;99.90
10443;DHT22;5269;51.146;16.986;2022-09-28T11:38:40;10.20;99.90
10443;DHT22;5269;51.146;16.986;2022-09-28T11:41:24;10.10;99.90
10443;DHT22;5269;51.146;16.986;2022-09-28T11:44:12;10.20;99.90
10443;DHT22;5269;51.146;16.986;2022-09-28T11:46:47;10.20;99.90
10443;DHT22;5269;51.146;16.986;2022-09-28T11:49:26;10.30;99.90
10443;DHT22;5269;51.146;16.986;2022-09-28T11:51:58;10.40;1.00
10443;DHT22;5269;51.146;16.986;2022-09-28T11:54:29;10.40;1.00
10443;DHT22;5269;51.146;16.986;2022-09-28T11:57:01;10.50;81.30
10443;DHT22;5269;51.146;16.986;2022-09-28T11:59:31;10.40;1.00
10443;DHT22;5269;51.146;16.986;2022-09-28T12:02:08;10.40;1.00
10443;DHT22;5269;51.146;16.986;2022-09-28T12:04:39;10.50;1.00
10443;DHT22;5269;51.146;16.986;2022-09-28T12:07:10;10.50;1.00
10443;DHT22;5269;51.146;16.986;2022-09-28T12:09:45;10.30;1.00
10443;DHT22;5269;51.146;16.986;2022-09-28T12:12:22;10.20;55.40
10443;DHT22;5269;51.146;16.986;2022-09-28T12:14:52;10.30;99.90
10443;DHT22;5269;51.146;16.986;2022-09-28T12:17:24;10.30;99.90
10443;DHT22;5269;51.146;16.986;2022-09-28T12:19:57;10.30;99.90
10443;DHT22;5269;51.146;16.986;2022-09-28T12:22:30;10.30;99.90
10443;DHT22;5269;51.146;16.986;2022-09-28T12:24:58;10.30;99.90
10443;DHT22;5269;51.146;16.986;2022-09-28T12:27:38;10.40;99.90
10443;DHT22;5269;51.146;16.986;2022-09-28T12:30:12;10.50;99.90
10443;DHT22;5269;51.146;16.986;2022-09-28T12:32:45;10.30;99.90
10443;DHT22;5269;51.146;16.986;2022-09-28T12:35:18;10.40;99.90
10443;DHT22;5269;51.146;16.986;2022-09-28T12:38:13;10.40;99.90
10443;DHT22;5269;51.146;16.986;2022-09-28T12:40:51;10.50;99.90
10443;DHT22;5269;51.146;16.986;2022-09-28T12:43:44;10.50;99.90
10443;DHT22;5269;51.146;16.986;2022-09-28T12:46:36;10.40;22.00
10443;DHT22;5269;51.146;16.986;2022-09-28T12:49:24;10.30;1.00
10443;DHT22;5269;51.146;16.986;2022-09-28T12:51:56;10.30;71.40
10443;DHT22;5269;51.146;16.986;2022-09-28T12:54:50;10.40;99.90
10443;DHT22;5269;51.146;16.986;2022-09-28T12:57:34;10.70;99.90
10443;DHT22;5269;51.146;16.986;2022-09-28T13:00:08;10.80;99.90
10443;DHT22;5269;51.146;16.986;2022-09-28T13:03:03;10.90;99.90
10443;DHT22;5269;51.146;16.986;2022-09-28T13:08:36;11.10;99.90
10443;DHT22;5269;51.146;16.986;2022-09-28T13:11:16;11.20;99.90
10443;DHT22;5269;51.146;16.986;2022-09-28T13:13:51;11.30;99.90
10443;DHT22;5269;51.146;16.986;2022-09-28T13:16:28;11.40;99.90
10443;DHT22;5269;51.146;16.986;2022-09-28T13:19:04;11.50;1.00
10443;DHT22;5269;51.146;16.986;2022-09-28T13:21:37;11.60;1.00
10443;DHT22;5269;51.146;16.986;2022-09-28T13:24:19;11.70;1.00
10443;DHT22;5269;51.146;16.986;2022-09-28T13:26:49;11.70;99.90
10443;DHT22;5269;51.146;16.986;2022-09-28T13:29:18;11.70;1.00
10443;DHT22;5269;51.146;16.986;2022-09-28T13:31:50;11.80;1.00
10443;DHT22;5269;51.146;16.986;2022-09-28T13:34:21;11.80;1.00
10443;DHT22;5269;51.146;16.986;2022-09-28T13:37:07;11.50;1.00
10443;DHT22;5269;51.146;16.986;2022-09-28T13:39:50;11.50;2.60
10443;DHT22;5269;51.146;16.986;2022-09-28T13:42:30;11.40;1.00
10443;DHT22;5269;51.146;16.986;2022-09-28T13:45:13;11.40;1.00
10443;DHT22;5269;51.146;16.986;2022-09-28T13:48:05;11.30;1.00
10443;DHT22;5269;51.146;16.986;2022-09-28T13:53:40;11.40;37.30
10443;DHT22;5269;51.146;16.986;2022-09-28T13:56:29;11.30;17.60
10443;DHT22;5269;51.146;16.986;2022-09-28T13:59:02;11.30;99.90
10443;DHT22;5269;51.146;16.986;2022-09-28T14:01:34;11.30;99.90
10443;DHT22;5269;51.146;16.986;2022-09-28T14:04:16;11.20;99.90
10443;DHT22;5269;51.146;16.986;2022-09-28T14:06:49;11.30;99.90
10443;DHT22;5269;51.146;16.986;2022-09-28T14:09:39;11.30;99.90
10443;DHT22;5269;51.146;16.986;2022-09-28T14:15:37;11.20;1.00
10443;DHT22;5269;51.146;16.986;2022-09-28T14:21:12;10.90;1.00
10443;DHT22;5269;51.146;16.986;2022-09-28T14:24:05;11.00;99.90
10443;DHT22;5269;51.146;16.986;2022-09-28T14:27:02;10.90;99.90
10443;DHT22;5269;51.146;16.986;2022-09-28T14:29:35;10.70;99.90
10443;DHT22;5269;51.146;16.986;2022-09-28T14:32:21;10.70;99.90
10443;DHT22;5269;51.146;16.986;2022-09-28T14:34:55;10.80;99.90
10443;DHT22;5269;51.146;16.986;2022-09-28T14:37:28;10.80;99.90
10443;DHT22;5269;51.146;16.986;2022-09-28T14:40:19;10.90;99.90
10443;DHT22;5269;51.146;16.986;2022-09-28T14:43:23;11.00;99.90
10443;DHT22;5269;51.146;16.986;2022-09-28T14:45:51;11.20;99.90
10443;DHT22;5269;51.146;16.986;2022-09-28T14:48:43;11.20;99.90
10443;DHT22;5269;51.146;16.986;2022-09-28T14:51:53;11.20;99.90
10443;DHT22;5269;51.146;16.986;2022-09-28T14:54:25;11.30;99.90
10443;DHT22;5269;51.146;16.986;2022-09-28T14:57:03;11.30;99.90
10443;DHT22;5269;51.146;16.986;2022-09-28T14:59:39;11.20;99.90
10443;DHT22;5269;51.146;16.986;2022-09-28T15:02:19;11.30;99.90
10443;DHT22;5269;51.146;16.986;2022-09-28T15:04:50;11.30;99.90
10443;DHT22;5269;51.146;16.986;2022-09-28T15:07:20;11.50;99.90
10443;DHT22;5269;51.146;16.986;2022-09-28T15:09:50;11.40;99.90
10443;DHT22;5269;51.146;16.986;2022-09-28T15:12:19;11.50;99.90
10443;DHT22;5269;51.146;16.986;2022-09-28T15:14:50;11.50;99.90
10443;DHT22;5269;51.146;16.986;2022-09-28T15:17:21;11.60;99.90
10443;DHT22;5269;51.146;16.986;2022-09-28T15:19:58;11.90;99.90
10443;DHT22;5269;51.146;16.986;2022-09-28T15:22:30;12.10;99.90
10443;DHT22;5269;51.146;16.986;2022-09-28T15:25:00;12.10;99.90
10443;DHT22;5269;51.146;16.986;2022-09-28T15:27:33;12.10;99.90
10443;DHT22;5269;51.146;16.986;2022-09-28T15:30:10;12.20;99.90
10443;DHT22;5269;51.146;16.986;2022-09-28T15:32:40;12.10;99.90
10443;DHT22;5269;51.146;16.986;2022-09-28T15:35:12;12.10;99.90
10443;DHT22;5269;51.146;16.986;2022-09-28T15:37:42;12.00;99.90
10443;DHT22;5269;51.146;16.986;2022-09-28T15:40:14;12.10;99.90
10443;DHT22;5269;51.146;16.986;2022-09-28T15:42:42;12.10;99.90
10443;DHT22;5269;51.146;16.986;2022-09-28T15:45:23;11.90;99.90
10443;DHT22;5269;51.146;16.986;2022-09-28T15:47:56;11.70;99.90
10443;DHT22;5269;51.146;16.986;2022-09-28T15:50:28;11.60;99.90
10443;DHT22;5269;51.146;16.986;2022-09-28T15:52:59;11.50;99.90
10443;DHT22;5269;51.146;16.986;2022-09-28T15:55:30;11.50;99.90
10443;DHT22;5269;51.146;16.986;2022-09-28T15:58:06;11.40;99.90
10443;DHT22;5269;51.146;16.986;2022-09-28T16:00:49;11.40;99.90
10443;DHT22;5269;51.146;16.986;2022-09-28T16:03:22;11.30;99.90
10443;DHT22;5269;51.146;16.986;2022-09-28T16:05:51;11.40;99.90
10443;DHT22;5269;51.146;16.986;2022-09-28T16:08:19;11.30;99.90
10443;DHT22;5269;51.146;16.986;2022-09-28T16:11:07;11.30;99.90
10443;DHT22;5269;51.146;16.986;2022-09-28T16:13:36;11.30;99.90
10443;DHT22;5269;51.146;16.986;2022-09-28T16:16:03;11.20;99.90
10443;DHT22;5269;51.146;16.986;2022-09-28T16:18:30;11.30;99.90
10443;DHT22;5269;51.146;16.986;2022-09-28T16:24:17;11.30;99.90
10443;DHT22;5269;51.146;16.986;2022-09-28T16:26:55;11.20;99.90
10443;DHT22;5269;51.146;16.986;2022-09-28T16:29:25;11.10;99.90
10443;DHT22;5269;51.146;16.986;2022-09-28T16:31:53;11.10;99.90